sensor_id;sensor_type;location;lat;lon;timestamp;P1;durP1;ratioP1;P2;durP2;ratioP2
68106;SDS011;54892;47.488;19.026;2022-12-24T00:01:14;47.83;;;18.73;;
68106;SDS011;54892;47.488;19.026;2022-12-24T00:04:19;47.42;;;18.70;;
68106;SDS011;54892;47.488;19.026;2022-12-24T00:07:23;49.97;;;18.83;;
68106;SDS011;54892;47.488;19.026;2022-12-24T00:10:26;45.60;;;18.77;;
68106;SDS011;54892;47.488;19.026;2022-12-24T00:13:30;43.42;;;18.37;;
68106;SDS011;54892;47.488;19.026;2022-12-24T00:16:34;43.45;;;19.30;;
68106;SDS011;54892;47.488;19.026;2022-12-24T00:19:40;46.60;;;17.90;;
68106;SDS011;54892;47.488;19.026;2022-12-24T00:22:45;42.28;;;18.05;;
68106;SDS011;54892;47.488;19.026;2022-12-24T00:25:49;48.17;;;18.87;;
68106;SDS011;54892;47.488;19.026;2022-12-24T00:28:52;48.80;;;19.42;;
68106;SDS011;54892;47.488;19.026;2022-12-24T00:31:55;38.85;;;16.60;;
68106;SDS011;54892;47.488;19.026;2022-12-24T00:34:59;44.97;;;17.33;;
68106;SDS011;54892;47.488;19.026;2022-12-24T00:38:04;41.13;;;18.05;;
68106;SDS011;54892;47.488;19.026;2022-12-24T00:41:07;42.67;;;17.50;;
68106;SDS011;54892;47.488;19.026;2022-12-24T00:44:25;48.78;;;18.80;;
68106;SDS011;54892;47.488;19.026;2022-12-24T00:47:29;46.47;;;18.70;;
68106;SDS011;54892;47.488;19.026;2022-12-24T00:50:34;47.20;;;19.40;;
68106;SDS011;54892;47.488;19.026;2022-12-24T00:53:38;48.40;;;19.23;;
68106;SDS011;54892;47.488;19.026;2022-12-24T00:56:41;46.85;;;18.10;;
68106;SDS011;54892;47.488;19.026;2022-12-24T00:59:44;45.08;;;18.35;;
68106;SDS011;54892;47.488;19.026;2022-12-24T01:02:49;40.28;;;17.67;;
68106;SDS011;54892;47.488;19.026;2022-12-24T01:05:54;46.65;;;18.98;;
68106;SDS011;54892;47.488;19.026;2022-12-24T01:08:56;52.92;;;18.58;;
68106;SDS011;54892;47.488;19.026;2022-12-24T01:12:00;50.67;;;18.42;;
68106;SDS011;54892;47.488;19.026;2022-12-24T01:15:04;50.83;;;18.95;;
68106;SDS011;54892;47.488;19.026;2022-12-24T01:18:08;52.35;;;19.85;;
68106;SDS011;54892;47.488;19.026;2022-12-24T01:21:13;54.00;;;20.17;;
68106;SDS011;54892;47.488;19.026;2022-12-24T01:24:18;52.13;;;19.62;;
68106;SDS011;54892;47.488;19.026;2022-12-24T01:27:21;55.38;;;19.52;;
68106;SDS011;54892;47.488;19.026;2022-12-24T01:30:25;52.15;;;20.08;;
68106;SDS011;54892;47.488;19.026;2022-12-24T01:33:28;48.30;;;19.37;;
68106;SDS011;54892;47.488;19.026;2022-12-24T01:36:33;47.80;;;19.20;;
68106;SDS011;54892;47.488;19.026;2022-12-24T01:39:38;46.65;;;19.55;;
68106;SDS011;54892;47.488;19.026;2022-12-24T01:42:42;46.35;;;19.25;;
68106;SDS011;54892;47.488;19.026;2022-12-24T01:46:06;43.38;;;17.90;;
68106;SDS011;54892;47.488;19.026;2022-12-24T01:49:16;45.28;;;19.45;;
68106;SDS011;54892;47.488;19.026;2022-12-24T01:52:23;45.53;;;18.95;;
68106;SDS011;54892;47.488;19.026;2022-12-24T01:55:30;44.78;;;17.73;;
68106;SDS011;54892;47.488;19.026;2022-12-24T01:58:35;43.63;;;17.43;;
68106;SDS011;54892;47.488;19.026;2022-12-24T02:01:39;42.55;;;17.17;;
68106;SDS011;54892;47.488;19.026;2022-12-24T02:04:45;40.58;;;17.40;;
68106;SDS011;54892;47.488;19.026;2022-12-24T02:07:56;37.80;;;16.77;;
68106;SDS011;54892;47.488;19.026;2022-12-24T02:11:01;40.67;;;17.45;;
68106;SDS011;54892;47.488;19.026;2022-12-24T02:14:06;38.22;;;16.48;;
68106;SDS011;54892;47.488;19.026;2022-12-24T02:17:12;38.03;;;16.80;;
68106;SDS011;54892;47.488;19.026;2022-12-24T02:20:29;36.58;;;17.17;;
68106;SDS011;54892;47.488;19.026;2022-12-24T02:27:39;34.58;;;16.20;;
68106;SDS011;54892;47.488;19.026;2022-12-24T02:30:51;27.83;;;14.25;;
68106;SDS011;54892;47.488;19.026;2022-12-24T02:34:02;23.10;;;12.70;;
68106;SDS011;54892;47.488;19.026;2022-12-24T02:37:11;25.08;;;14.43;;
68106;SDS011;54892;47.488;19.026;2022-12-24T02:40:20;24.55;;;12.95;;
68106;SDS011;54892;47.488;19.026;2022-12-24T02:43:28;25.77;;;13.27;;
68106;SDS011;54892;47.488;19.026;2022-12-24T02:46:37;25.70;;;13.90;;
68106;SDS011;54892;47.488;19.026;2022-12-24T02:49:42;33.67;;;17.23;;
68106;SDS011;54892;47.488;19.026;2022-12-24T02:52:46;40.63;;;17.65;;
68106;SDS011;54892;47.488;19.026;2022-12-24T02:55:58;35.85;;;16.52;;
68106;SDS011;54892;47.488;19.026;2022-12-24T02:59:24;34.55;;;16.83;;
68106;SDS011;54892;47.488;19.026;2022-12-24T03:02:49;36.55;;;17.27;;
68106;SDS011;54892;47.488;19.026;2022-12-24T03:06:10;28.53;;;16.07;;
68106;SDS011;54892;47.488;19.026;2022-12-24T03:09:24;35.80;;;16.85;;
68106;SDS011;54892;47.488;19.026;2022-12-24T03:12:31;34.97;;;16.42;;
68106;SDS011;54892;47.488;19.026;2022-12-24T03:15:37;35.90;;;17.70;;
68106;SDS011;54892;47.488;19.026;2022-12-24T03:18:43;33.40;;;16.58;;
68106;SDS011;54892;47.488;19.026;2022-12-24T03:21:49;29.23;;;16.37;;
68106;SDS011;54892;47.488;19.026;2022-12-24T03:24:54;34.47;;;17.05;;
68106;SDS011;54892;47.488;19.026;2022-12-24T03:27:58;28.90;;;15.90;;
68106;SDS011;54892;47.488;19.026;2022-12-24T03:31:05;25.77;;;15.20;;
68106;SDS011;54892;47.488;19.026;2022-12-24T03:34:12;30.67;;;15.13;;
68106;SDS011;54892;47.488;19.026;2022-12-24T03:37:16;35.00;;;16.08;;
68106;SDS011;54892;47.488;19.026;2022-12-24T03:40:20;31.92;;;15.60;;
68106;SDS011;54892;47.488;19.026;2022-12-24T03:43:24;27.83;;;15.70;;
68106;SDS011;54892;47.488;19.026;2022-12-24T03:46:28;29.02;;;15.52;;
68106;SDS011;54892;47.488;19.026;2022-12-24T03:49:33;29.48;;;15.70;;
68106;SDS011;54892;47.488;19.026;2022-12-24T03:52:37;32.17;;;16.53;;
68106;SDS011;54892;47.488;19.026;2022-12-24T03:55:40;31.70;;;16.30;;
68106;SDS011;54892;47.488;19.026;2022-12-24T03:58:44;31.62;;;15.70;;
68106;SDS011;54892;47.488;19.026;2022-12-24T04:01:47;34.20;;;16.87;;
68106;SDS011;54892;47.488;19.026;2022-12-24T04:04:52;30.70;;;15.32;;
68106;SDS011;54892;47.488;19.026;2022-12-24T04:07:56;31.57;;;16.30;;
68106;SDS011;54892;47.488;19.026;2022-12-24T04:11:00;29.67;;;15.85;;
68106;SDS011;54892;47.488;19.026;2022-12-24T04:14:06;24.73;;;14.80;;
68106;SDS011;54892;47.488;19.026;2022-12-24T04:17:10;27.77;;;15.05;;
68106;SDS011;54892;47.488;19.026;2022-12-24T04:20:15;31.45;;;15.52;;
68106;SDS011;54892;47.488;19.026;2022-12-24T04:23:19;29.05;;;15.48;;
68106;SDS011;54892;47.488;19.026;2022-12-24T04:26:22;28.23;;;14.68;;
68106;SDS011;54892;47.488;19.026;2022-12-24T04:29:25;27.10;;;14.90;;
68106;SDS011;54892;47.488;19.026;2022-12-24T04:32:29;27.80;;;14.25;;
68106;SDS011;54892;47.488;19.026;2022-12-24T04:35:36;20.37;;;12.07;;
68106;SDS011;54892;47.488;19.026;2022-12-24T04:38:41;22.77;;;12.77;;
68106;SDS011;54892;47.488;19.026;2022-12-24T04:41:44;20.77;;;10.75;;
68106;SDS011;54892;47.488;19.026;2022-12-24T04:44:49;18.25;;;10.25;;
68106;SDS011;54892;47.488;19.026;2022-12-24T04:47:52;17.35;;;9.35;;
68106;SDS011;54892;47.488;19.026;2022-12-24T04:50:57;13.98;;;8.65;;
68106;SDS011;54892;47.488;19.026;2022-12-24T04:54:03;14.30;;;8.45;;
68106;SDS011;54892;47.488;19.026;2022-12-24T04:57:07;12.80;;;6.97;;
68106;SDS011;54892;47.488;19.026;2022-12-24T05:00:11;11.43;;;6.87;;
68106;SDS011;54892;47.488;19.026;2022-12-24T05:03:15;8.88;;;5.32;;
68106;SDS011;54892;47.488;19.026;2022-12-24T05:06:21;8.75;;;5.18;;
68106;SDS011;54892;47.488;19.026;2022-12-24T05:09:26;8.32;;;5.03;;
68106;SDS011;54892;47.488;19.026;2022-12-24T05:12:29;7.65;;;4.50;;
68106;SDS011;54892;47.488;19.026;2022-12-24T05:15:33;12.48;;;8.02;;
68106;SDS011;54892;47.488;19.026;2022-12-24T05:18:37;9.57;;;5.78;;
68106;SDS011;54892;47.488;19.026;2022-12-24T05:21:42;19.05;;;8.45;;
68106;SDS011;54892;47.488;19.026;2022-12-24T05:25:05;10.20;;;6.85;;
68106;SDS011;54892;47.488;19.026;2022-12-24T05:28:28;8.63;;;4.93;;
68106;SDS011;54892;47.488;19.026;2022-12-24T05:31:32;14.60;;;7.62;;
68106;SDS011;54892;47.488;19.026;2022-12-24T05:34:36;12.40;;;6.97;;
68106;SDS011;54892;47.488;19.026;2022-12-24T05:37:41;10.38;;;6.35;;
68106;SDS011;54892;47.488;19.026;2022-12-24T05:40:45;9.05;;;5.43;;
68106;SDS011;54892;47.488;19.026;2022-12-24T05:43:48;9.73;;;5.53;;
68106;SDS011;54892;47.488;19.026;2022-12-24T05:46:52;12.30;;;6.43;;
68106;SDS011;54892;47.488;19.026;2022-12-24T05:49:55;9.95;;;5.40;;
68106;SDS011;54892;47.488;19.026;2022-12-24T05:53:00;6.82;;;4.60;;
68106;SDS011;54892;47.488;19.026;2022-12-24T05:56:04;9.27;;;4.30;;
68106;SDS011;54892;47.488;19.026;2022-12-24T05:59:09;5.68;;;3.87;;
68106;SDS011;54892;47.488;19.026;2022-12-24T06:02:12;5.97;;;3.78;;
68106;SDS011;54892;47.488;19.026;2022-12-24T06:05:16;6.65;;;3.80;;
68106;SDS011;54892;47.488;19.026;2022-12-24T06:08:20;5.00;;;3.15;;
68106;SDS011;54892;47.488;19.026;2022-12-24T06:11:25;5.32;;;3.70;;
68106;SDS011;54892;47.488;19.026;2022-12-24T06:14:29;6.65;;;4.05;;
68106;SDS011;54892;47.488;19.026;2022-12-24T06:17:33;6.90;;;4.25;;
68106;SDS011;54892;47.488;19.026;2022-12-24T06:20:37;9.68;;;5.30;;
68106;SDS011;54892;47.488;19.026;2022-12-24T06:23:42;7.93;;;5.18;;
68106;SDS011;54892;47.488;19.026;2022-12-24T06:26:47;6.18;;;3.95;;
68106;SDS011;54892;47.488;19.026;2022-12-24T06:29:50;7.65;;;4.43;;
68106;SDS011;54892;47.488;19.026;2022-12-24T06:32:53;6.18;;;3.62;;
68106;SDS011;54892;47.488;19.026;2022-12-24T06:35:58;5.53;;;3.78;;
68106;SDS011;54892;47.488;19.026;2022-12-24T06:39:03;6.65;;;4.10;;
68106;SDS011;54892;47.488;19.026;2022-12-24T06:42:06;7.60;;;4.28;;
68106;SDS011;54892;47.488;19.026;2022-12-24T06:45:10;10.02;;;5.25;;
68106;SDS011;54892;47.488;19.026;2022-12-24T06:48:14;8.40;;;4.60;;
68106;SDS011;54892;47.488;19.026;2022-12-24T06:51:18;10.00;;;4.12;;
68106;SDS011;54892;47.488;19.026;2022-12-24T06:54:23;6.12;;;4.07;;
68106;SDS011;54892;47.488;19.026;2022-12-24T06:57:26;8.02;;;4.40;;
68106;SDS011;54892;47.488;19.026;2022-12-24T07:00:32;6.12;;;4.05;;
68106;SDS011;54892;47.488;19.026;2022-12-24T07:03:36;7.15;;;3.60;;
68106;SDS011;54892;47.488;19.026;2022-12-24T07:06:39;6.95;;;4.10;;
68106;SDS011;54892;47.488;19.026;2022-12-24T07:09:45;7.97;;;3.75;;
68106;SDS011;54892;47.488;19.026;2022-12-24T07:12:49;7.12;;;3.80;;
68106;SDS011;54892;47.488;19.026;2022-12-24T07:15:55;5.30;;;3.47;;
68106;SDS011;54892;47.488;19.026;2022-12-24T07:18:59;5.72;;;3.15;;
68106;SDS011;54892;47.488;19.026;2022-12-24T07:22:03;4.22;;;2.75;;
68106;SDS011;54892;47.488;19.026;2022-12-24T07:25:12;4.30;;;2.58;;
68106;SDS011;54892;47.488;19.026;2022-12-24T07:28:16;6.45;;;2.83;;
68106;SDS011;54892;47.488;19.026;2022-12-24T07:31:22;4.80;;;2.53;;
68106;SDS011;54892;47.488;19.026;2022-12-24T07:34:26;9.13;;;4.47;;
68106;SDS011;54892;47.488;19.026;2022-12-24T07:37:29;9.18;;;5.37;;
68106;SDS011;54892;47.488;19.026;2022-12-24T07:40:34;11.20;;;5.57;;
68106;SDS011;54892;47.488;19.026;2022-12-24T07:43:38;12.07;;;6.35;;
68106;SDS011;54892;47.488;19.026;2022-12-24T07:46:42;10.15;;;6.28;;
68106;SDS011;54892;47.488;19.026;2022-12-24T07:49:46;14.10;;;7.60;;
68106;SDS011;54892;47.488;19.026;2022-12-24T07:52:51;14.30;;;6.20;;
68106;SDS011;54892;47.488;19.026;2022-12-24T07:55:56;12.45;;;6.97;;
68106;SDS011;54892;47.488;19.026;2022-12-24T07:59:00;8.85;;;5.55;;
68106;SDS011;54892;47.488;19.026;2022-12-24T08:02:04;8.20;;;5.18;;
68106;SDS011;54892;47.488;19.026;2022-12-24T08:05:10;9.02;;;5.15;;
68106;SDS011;54892;47.488;19.026;2022-12-24T08:08:13;8.80;;;5.12;;
68106;SDS011;54892;47.488;19.026;2022-12-24T08:11:19;8.38;;;5.10;;
68106;SDS011;54892;47.488;19.026;2022-12-24T08:14:22;7.82;;;5.03;;
68106;SDS011;54892;47.488;19.026;2022-12-24T08:17:26;9.60;;;5.10;;
68106;SDS011;54892;47.488;19.026;2022-12-24T08:20:35;5.82;;;4.22;;
68106;SDS011;54892;47.488;19.026;2022-12-24T08:23:40;7.62;;;4.35;;
68106;SDS011;54892;47.488;19.026;2022-12-24T08:26:45;9.52;;;4.70;;
68106;SDS011;54892;47.488;19.026;2022-12-24T08:29:48;8.77;;;4.60;;
68106;SDS011;54892;47.488;19.026;2022-12-24T08:32:52;8.63;;;4.30;;
68106;SDS011;54892;47.488;19.026;2022-12-24T08:35:56;7.40;;;4.20;;
68106;SDS011;54892;47.488;19.026;2022-12-24T08:39:00;7.80;;;3.85;;
68106;SDS011;54892;47.488;19.026;2022-12-24T08:42:05;7.75;;;4.35;;
68106;SDS011;54892;47.488;19.026;2022-12-24T08:45:10;5.87;;;3.70;;
68106;SDS011;54892;47.488;19.026;2022-12-24T08:48:14;3.67;;;2.65;;
68106;SDS011;54892;47.488;19.026;2022-12-24T08:51:17;2.78;;;1.77;;
68106;SDS011;54892;47.488;19.026;2022-12-24T08:54:22;3.95;;;1.80;;
68106;SDS011;54892;47.488;19.026;2022-12-24T08:57:27;3.03;;;1.70;;
68106;SDS011;54892;47.488;19.026;2022-12-24T09:00:31;3.40;;;1.85;;
68106;SDS011;54892;47.488;19.026;2022-12-24T09:03:34;3.20;;;1.85;;
68106;SDS011;54892;47.488;19.026;2022-12-24T09:06:38;5.10;;;1.60;;
68106;SDS011;54892;47.488;19.026;2022-12-24T09:09:42;1.90;;;1.37;;
68106;SDS011;54892;47.488;19.026;2022-12-24T09:12:47;2.67;;;1.50;;
68106;SDS011;54892;47.488;19.026;2022-12-24T09:15:52;2.87;;;1.40;;
68106;SDS011;54892;47.488;19.026;2022-12-24T09:18:56;2.87;;;1.58;;
68106;SDS011;54892;47.488;19.026;2022-12-24T09:22:00;4.07;;;1.50;;
68106;SDS011;54892;47.488;19.026;2022-12-24T09:25:03;2.87;;;1.60;;
68106;SDS011;54892;47.488;19.026;2022-12-24T09:28:09;3.40;;;1.20;;
68106;SDS011;54892;47.488;19.026;2022-12-24T09:31:13;2.72;;;1.52;;
68106;SDS011;54892;47.488;19.026;2022-12-24T09:34:17;2.47;;;1.40;;
68106;SDS011;54892;47.488;19.026;2022-12-24T09:37:21;4.37;;;1.58;;
68106;SDS011;54892;47.488;19.026;2022-12-24T09:40:24;3.75;;;1.30;;
68106;SDS011;54892;47.488;19.026;2022-12-24T09:43:36;3.10;;;1.25;;
68106;SDS011;54892;47.488;19.026;2022-12-24T09:46:41;2.80;;;1.55;;
68106;SDS011;54892;47.488;19.026;2022-12-24T09:49:48;2.17;;;1.40;;
68106;SDS011;54892;47.488;19.026;2022-12-24T09:52:55;2.42;;;1.30;;
68106;SDS011;54892;47.488;19.026;2022-12-24T09:56:03;4.15;;;1.25;;
68106;SDS011;54892;47.488;19.026;2022-12-24T09:59:15;2.92;;;1.42;;
68106;SDS011;54892;47.488;19.026;2022-12-24T10:02:20;3.17;;;1.75;;
68106;SDS011;54892;47.488;19.026;2022-12-24T10:05:26;2.75;;;1.23;;
68106;SDS011;54892;47.488;19.026;2022-12-24T10:08:42;2.00;;;1.10;;
68106;SDS011;54892;47.488;19.026;2022-12-24T10:11:55;4.60;;;1.50;;
68106;SDS011;54892;47.488;19.026;2022-12-24T10:15:23;2.67;;;1.20;;
68106;SDS011;54892;47.488;19.026;2022-12-24T10:18:33;3.83;;;1.10;;
68106;SDS011;54892;47.488;19.026;2022-12-24T10:21:51;3.83;;;1.20;;
68106;SDS011;54892;47.488;19.026;2022-12-24T10:25:03;2.22;;;1.02;;
68106;SDS011;54892;47.488;19.026;2022-12-24T10:28:17;1.90;;;1.10;;
68106;SDS011;54892;47.488;19.026;2022-12-24T10:31:25;2.67;;;1.10;;
68106;SDS011;54892;47.488;19.026;2022-12-24T10:34:37;6.12;;;1.15;;
68106;SDS011;54892;47.488;19.026;2022-12-24T10:37:45;1.80;;;0.85;;
68106;SDS011;54892;47.488;19.026;2022-12-24T10:40:50;1.77;;;0.90;;
68106;SDS011;54892;47.488;19.026;2022-12-24T10:43:55;2.00;;;1.15;;
68106;SDS011;54892;47.488;19.026;2022-12-24T10:47:03;2.28;;;0.98;;
68106;SDS011;54892;47.488;19.026;2022-12-24T10:50:12;3.35;;;1.30;;
68106;SDS011;54892;47.488;19.026;2022-12-24T10:53:22;2.42;;;1.02;;
68106;SDS011;54892;47.488;19.026;2022-12-24T10:56:30;1.62;;;1.02;;
68106;SDS011;54892;47.488;19.026;2022-12-24T10:59:35;7.90;;;1.10;;
68106;SDS011;54892;47.488;19.026;2022-12-24T11:02:46;2.90;;;1.15;;
68106;SDS011;54892;47.488;19.026;2022-12-24T11:09:11;4.87;;;1.20;;
68106;SDS011;54892;47.488;19.026;2022-12-24T11:12:24;1.95;;;0.90;;
68106;SDS011;54892;47.488;19.026;2022-12-24T11:15:30;4.22;;;1.60;;
68106;SDS011;54892;47.488;19.026;2022-12-24T11:18:36;2.67;;;0.70;;
68106;SDS011;54892;47.488;19.026;2022-12-24T11:21:56;4.25;;;1.27;;
68106;SDS011;54892;47.488;19.026;2022-12-24T11:25:03;2.92;;;0.85;;
68106;SDS011;54892;47.488;19.026;2022-12-24T11:28:20;5.18;;;1.30;;
68106;SDS011;54892;47.488;19.026;2022-12-24T11:34:31;2.50;;;0.57;;
68106;SDS011;54892;47.488;19.026;2022-12-24T11:37:35;4.30;;;0.80;;
68106;SDS011;54892;47.488;19.026;2022-12-24T11:40:41;1.23;;;0.57;;
68106;SDS011;54892;47.488;19.026;2022-12-24T11:43:46;6.97;;;0.70;;
68106;SDS011;54892;47.488;19.026;2022-12-24T11:46:54;1.98;;;0.70;;
68106;SDS011;54892;47.488;19.026;2022-12-24T11:53:26;2.12;;;0.57;;
68106;SDS011;54892;47.488;19.026;2022-12-24T11:56:39;1.65;;;0.50;;
68106;SDS011;54892;47.488;19.026;2022-12-24T11:59:46;3.33;;;0.60;;
68106;SDS011;54892;47.488;19.026;2022-12-24T12:02:52;1.58;;;0.65;;
68106;SDS011;54892;47.488;19.026;2022-12-24T12:06:01;6.00;;;0.55;;
68106;SDS011;54892;47.488;19.026;2022-12-24T12:09:10;5.05;;;0.73;;
68106;SDS011;54892;47.488;19.026;2022-12-24T12:12:16;2.28;;;0.75;;
68106;SDS011;54892;47.488;19.026;2022-12-24T12:15:24;3.03;;;0.70;;
68106;SDS011;54892;47.488;19.026;2022-12-24T12:18:31;1.27;;;0.60;;
68106;SDS011;54892;47.488;19.026;2022-12-24T12:21:41;2.95;;;0.65;;
68106;SDS011;54892;47.488;19.026;2022-12-24T12:24:49;8.80;;;0.90;;
68106;SDS011;54892;47.488;19.026;2022-12-24T12:27:57;3.37;;;0.82;;
68106;SDS011;54892;47.488;19.026;2022-12-24T12:31:04;2.10;;;0.68;;
68106;SDS011;54892;47.488;19.026;2022-12-24T12:34:17;2.20;;;0.68;;
68106;SDS011;54892;47.488;19.026;2022-12-24T12:37:27;3.87;;;0.70;;
68106;SDS011;54892;47.488;19.026;2022-12-24T12:40:38;4.70;;;0.95;;
68106;SDS011;54892;47.488;19.026;2022-12-24T12:44:01;1.55;;;0.68;;
68106;SDS011;54892;47.488;19.026;2022-12-24T12:50:45;4.53;;;0.75;;
68106;SDS011;54892;47.488;19.026;2022-12-24T12:54:04;2.47;;;0.80;;
68106;SDS011;54892;47.488;19.026;2022-12-24T12:57:23;4.53;;;0.90;;
68106;SDS011;54892;47.488;19.026;2022-12-24T13:00:34;5.45;;;0.70;;
68106;SDS011;54892;47.488;19.026;2022-12-24T13:03:50;2.60;;;0.57;;
68106;SDS011;54892;47.488;19.026;2022-12-24T13:07:13;1.48;;;0.50;;
68106;SDS011;54892;47.488;19.026;2022-12-24T13:10:40;2.70;;;0.62;;
68106;SDS011;54892;47.488;19.026;2022-12-24T13:13:58;3.90;;;0.70;;
68106;SDS011;54892;47.488;19.026;2022-12-24T13:17:20;6.03;;;0.90;;
68106;SDS011;54892;47.488;19.026;2022-12-24T13:20:41;5.32;;;0.60;;
68106;SDS011;54892;47.488;19.026;2022-12-24T13:24:02;2.22;;;0.50;;
68106;SDS011;54892;47.488;19.026;2022-12-24T13:27:16;2.72;;;0.60;;
68106;SDS011;54892;47.488;19.026;2022-12-24T13:30:31;2.17;;;0.62;;
68106;SDS011;54892;47.488;19.026;2022-12-24T13:33:46;2.08;;;0.98;;
68106;SDS011;54892;47.488;19.026;2022-12-24T13:37:02;2.58;;;0.55;;
68106;SDS011;54892;47.488;19.026;2022-12-24T13:40:14;3.47;;;0.60;;
68106;SDS011;54892;47.488;19.026;2022-12-24T13:43:25;1.33;;;0.50;;
68106;SDS011;54892;47.488;19.026;2022-12-24T13:47:13;3.45;;;0.60;;
68106;SDS011;54892;47.488;19.026;2022-12-24T13:50:34;4.43;;;0.82;;
68106;SDS011;54892;47.488;19.026;2022-12-24T13:53:40;2.15;;;0.93;;
68106;SDS011;54892;47.488;19.026;2022-12-24T13:56:46;3.42;;;0.55;;
68106;SDS011;54892;47.488;19.026;2022-12-24T13:59:54;1.42;;;0.50;;
68106;SDS011;54892;47.488;19.026;2022-12-24T14:03:01;2.67;;;0.60;;
68106;SDS011;54892;47.488;19.026;2022-12-24T14:06:10;3.72;;;0.50;;
68106;SDS011;54892;47.488;19.026;2022-12-24T14:09:22;5.55;;;0.60;;
68106;SDS011;54892;47.488;19.026;2022-12-24T14:12:44;4.60;;;0.90;;
68106;SDS011;54892;47.488;19.026;2022-12-24T14:16:05;2.33;;;0.55;;
68106;SDS011;54892;47.488;19.026;2022-12-24T14:19:12;1.98;;;0.60;;
68106;SDS011;54892;47.488;19.026;2022-12-24T14:22:19;2.30;;;0.73;;
68106;SDS011;54892;47.488;19.026;2022-12-24T14:25:29;2.53;;;0.60;;
68106;SDS011;54892;47.488;19.026;2022-12-24T14:28:34;12.23;;;1.40;;
68106;SDS011;54892;47.488;19.026;2022-12-24T14:31:50;1.95;;;0.62;;
68106;SDS011;54892;47.488;19.026;2022-12-24T14:35:04;2.75;;;0.73;;
68106;SDS011;54892;47.488;19.026;2022-12-24T14:38:11;4.00;;;1.02;;
68106;SDS011;54892;47.488;19.026;2022-12-24T14:41:29;2.65;;;0.90;;
68106;SDS011;54892;47.488;19.026;2022-12-24T14:44:42;1.40;;;0.90;;
68106;SDS011;54892;47.488;19.026;2022-12-24T14:47:53;2.28;;;0.70;;
68106;SDS011;54892;47.488;19.026;2022-12-24T14:51:07;4.65;;;1.05;;
68106;SDS011;54892;47.488;19.026;2022-12-24T14:54:31;1.20;;;0.52;;
68106;SDS011;54892;47.488;19.026;2022-12-24T14:57:37;1.95;;;1.00;;
68106;SDS011;54892;47.488;19.026;2022-12-24T15:00:41;2.50;;;0.73;;
68106;SDS011;54892;47.488;19.026;2022-12-24T15:03:48;3.28;;;0.60;;
68106;SDS011;54892;47.488;19.026;2022-12-24T15:07:02;2.17;;;0.50;;
68106;SDS011;54892;47.488;19.026;2022-12-24T15:10:18;3.03;;;0.70;;
68106;SDS011;54892;47.488;19.026;2022-12-24T15:13:34;1.10;;;0.50;;
68106;SDS011;54892;47.488;19.026;2022-12-24T15:16:39;3.22;;;0.75;;
68106;SDS011;54892;47.488;19.026;2022-12-24T15:19:45;1.67;;;0.62;;
68106;SDS011;54892;47.488;19.026;2022-12-24T15:22:52;3.58;;;0.93;;
68106;SDS011;54892;47.488;19.026;2022-12-24T15:29:27;3.37;;;0.98;;
68106;SDS011;54892;47.488;19.026;2022-12-24T15:32:33;2.75;;;0.70;;
68106;SDS011;54892;47.488;19.026;2022-12-24T15:35:46;2.47;;;0.90;;
68106;SDS011;54892;47.488;19.026;2022-12-24T15:38:58;2.22;;;0.80;;
68106;SDS011;54892;47.488;19.026;2022-12-24T15:42:04;2.58;;;0.68;;
68106;SDS011;54892;47.488;19.026;2022-12-24T15:45:19;3.95;;;0.82;;
68106;SDS011;54892;47.488;19.026;2022-12-24T15:48:28;2.40;;;0.65;;
68106;SDS011;54892;47.488;19.026;2022-12-24T15:51:35;5.82;;;0.75;;
68106;SDS011;54892;47.488;19.026;2022-12-24T15:54:42;4.62;;;0.98;;
68106;SDS011;54892;47.488;19.026;2022-12-24T15:57:46;4.28;;;0.70;;
68106;SDS011;54892;47.488;19.026;2022-12-24T16:00:58;3.60;;;0.73;;
68106;SDS011;54892;47.488;19.026;2022-12-24T16:04:20;3.62;;;0.80;;
68106;SDS011;54892;47.488;19.026;2022-12-24T16:07:26;2.80;;;0.77;;
68106;SDS011;54892;47.488;19.026;2022-12-24T16:10:52;5.28;;;0.70;;
68106;SDS011;54892;47.488;19.026;2022-12-24T16:14:10;2.78;;;0.77;;
68106;SDS011;54892;47.488;19.026;2022-12-24T16:17:22;4.72;;;0.80;;
68106;SDS011;54892;47.488;19.026;2022-12-24T16:20:26;4.07;;;0.90;;
68106;SDS011;54892;47.488;19.026;2022-12-24T16:23:35;5.40;;;1.00;;
68106;SDS011;54892;47.488;19.026;2022-12-24T16:26:41;2.20;;;0.65;;
68106;SDS011;54892;47.488;19.026;2022-12-24T16:29:44;6.97;;;1.10;;
68106;SDS011;54892;47.488;19.026;2022-12-24T16:32:49;3.20;;;1.17;;
68106;SDS011;54892;47.488;19.026;2022-12-24T16:35:52;2.22;;;0.90;;
68106;SDS011;54892;47.488;19.026;2022-12-24T16:38:58;2.75;;;0.98;;
68106;SDS011;54892;47.488;19.026;2022-12-24T16:42:19;2.70;;;1.08;;
68106;SDS011;54892;47.488;19.026;2022-12-24T16:45:41;5.70;;;1.17;;
68106;SDS011;54892;47.488;19.026;2022-12-24T16:48:46;4.35;;;0.90;;
68106;SDS011;54892;47.488;19.026;2022-12-24T16:51:50;3.25;;;0.90;;
68106;SDS011;54892;47.488;19.026;2022-12-24T16:54:56;2.62;;;0.70;;
68106;SDS011;54892;47.488;19.026;2022-12-24T16:57:59;2.72;;;1.00;;
68106;SDS011;54892;47.488;19.026;2022-12-24T17:01:06;5.47;;;0.90;;
68106;SDS011;54892;47.488;19.026;2022-12-24T17:04:11;3.92;;;1.20;;
68106;SDS011;54892;47.488;19.026;2022-12-24T17:07:15;7.32;;;2.03;;
68106;SDS011;54892;47.488;19.026;2022-12-24T17:10:22;7.60;;;1.65;;
68106;SDS011;54892;47.488;19.026;2022-12-24T17:13:25;3.58;;;1.40;;
68106;SDS011;54892;47.488;19.026;2022-12-24T17:16:29;6.87;;;1.35;;
68106;SDS011;54892;47.488;19.026;2022-12-24T17:19:32;7.03;;;1.23;;
68106;SDS011;54892;47.488;19.026;2022-12-24T17:22:36;3.30;;;1.55;;
68106;SDS011;54892;47.488;19.026;2022-12-24T17:25:46;4.05;;;1.30;;
68106;SDS011;54892;47.488;19.026;2022-12-24T17:28:51;3.22;;;1.23;;
68106;SDS011;54892;47.488;19.026;2022-12-24T17:31:55;5.03;;;1.60;;
68106;SDS011;54892;47.488;19.026;2022-12-24T17:34:58;6.30;;;1.70;;
68106;SDS011;54892;47.488;19.026;2022-12-24T17:38:03;6.93;;;1.42;;
68106;SDS011;54892;47.488;19.026;2022-12-24T17:41:09;3.47;;;1.40;;
68106;SDS011;54892;47.488;19.026;2022-12-24T17:44:14;2.80;;;1.27;;
68106;SDS011;54892;47.488;19.026;2022-12-24T17:47:17;5.15;;;1.45;;
68106;SDS011;54892;47.488;19.026;2022-12-24T17:50:21;3.53;;;1.37;;
68106;SDS011;54892;47.488;19.026;2022-12-24T17:53:26;2.80;;;1.17;;
68106;SDS011;54892;47.488;19.026;2022-12-24T17:56:31;7.00;;;1.50;;
68106;SDS011;54892;47.488;19.026;2022-12-24T17:59:35;4.55;;;1.62;;
68106;SDS011;54892;47.488;19.026;2022-12-24T18:02:38;7.12;;;1.70;;
68106;SDS011;54892;47.488;19.026;2022-12-24T18:05:42;2.28;;;1.40;;
68106;SDS011;54892;47.488;19.026;2022-12-24T18:08:46;2.80;;;1.80;;
68106;SDS011;54892;47.488;19.026;2022-12-24T18:11:51;9.13;;;1.60;;
68106;SDS011;54892;47.488;19.026;2022-12-24T18:14:54;5.70;;;1.60;;
68106;SDS011;54892;47.488;19.026;2022-12-24T18:17:58;2.42;;;1.37;;
68106;SDS011;54892;47.488;19.026;2022-12-24T18:21:03;3.40;;;1.25;;
68106;SDS011;54892;47.488;19.026;2022-12-24T18:24:07;5.80;;;1.33;;
68106;SDS011;54892;47.488;19.026;2022-12-24T18:27:14;4.50;;;1.02;;
68106;SDS011;54892;47.488;19.026;2022-12-24T18:30:20;3.97;;;1.90;;
68106;SDS011;54892;47.488;19.026;2022-12-24T18:33:27;5.80;;;1.83;;
68106;SDS011;54892;47.488;19.026;2022-12-24T18:36:31;4.10;;;2.00;;
68106;SDS011;54892;47.488;19.026;2022-12-24T18:39:35;4.95;;;1.62;;
68106;SDS011;54892;47.488;19.026;2022-12-24T18:42:40;6.85;;;2.42;;